createdAt,value
2022-11-30T00:01:38.543Z,6.80
2022-11-30T00:04:13.250Z,6.70
2022-11-30T00:06:43.752Z,6.70
2022-11-30T00:09:20.297Z,6.70
2022-11-30T00:11:48.542Z,6.70
2022-11-30T00:14:23.229Z,6.70
2022-11-30T00:16:51.467Z,6.80
2022-11-30T00:19:26.273Z,6.80
2022-11-30T00:22:14.281Z,6.80
2022-11-30T00:24:50.370Z,6.90
2022-11-30T00:27:18.932Z,6.80
2022-11-30T00:29:54.277Z,6.80
2022-11-30T00:32:23.169Z,6.70
2022-11-30T00:34:58.287Z,6.70
2022-11-30T00:37:36.366Z,6.60
2022-11-30T00:40:14.471Z,6.70
2022-11-30T00:42:43.017Z,6.70
2022-11-30T00:45:18.285Z,6.70
2022-11-30T00:47:46.408Z,6.70
2022-11-30T00:50:21.262Z,6.60
2022-11-30T00:52:49.400Z,6.70
2022-11-30T00:55:25.261Z,6.60
2022-11-30T00:57:55.592Z,6.60
2022-11-30T01:00:30.270Z,6.60
2022-11-30T01:02:59.400Z,6.50
2022-11-30T01:05:34.259Z,6.60
2022-11-30T01:08:02.696Z,6.60
2022-11-30T01:10:39.292Z,6.60
2022-11-30T01:13:07.751Z,6.60
2022-11-30T01:15:44.396Z,6.60
2022-11-30T01:18:13.133Z,6.50
2022-11-30T01:20:49.294Z,6.50
2022-11-30T01:23:17.496Z,6.60
2022-11-30T01:26:01.274Z,6.50
2022-11-30T01:28:29.515Z,6.40
2022-11-30T01:31:05.385Z,6.40
2022-11-30T01:33:34.097Z,6.40
2022-11-30T01:36:10.314Z,6.40
2022-11-30T01:38:47.555Z,6.40
2022-11-30T01:41:26.317Z,6.40
2022-11-30T01:43:56.480Z,6.40
2022-11-30T01:46:42.471Z,6.50
2022-11-30T01:49:18.139Z,6.50
2022-11-30T01:51:57.346Z,6.50
2022-11-30T01:54:29.977Z,6.50
2022-11-30T01:57:10.288Z,6.50
2022-11-30T01:59:38.833Z,6.60
2022-11-30T02:02:13.333Z,6.60
2022-11-30T02:04:41.831Z,6.50
2022-11-30T02:07:17.382Z,6.70
2022-11-30T02:09:46.518Z,6.50
2022-11-30T02:12:33.329Z,6.50
2022-11-30T02:15:07.171Z,6.50
2022-11-30T02:17:52.329Z,6.40
2022-11-30T02:20:33.071Z,6.50
2022-11-30T02:23:25.549Z,6.50
2022-11-30T02:26:05.170Z,6.50
2022-11-30T02:29:11.474Z,6.60
2022-11-30T02:31:45.315Z,6.50
2022-11-30T02:34:23.323Z,6.50
2022-11-30T02:37:13.341Z,6.50
2022-11-30T02:39:48.331Z,6.40
2022-11-30T02:42:16.716Z,6.40
2022-11-30T02:44:57.328Z,6.40
2022-11-30T02:47:32.428Z,6.40
2022-11-30T02:50:09.361Z,6.40
2022-11-30T02:52:37.605Z,6.40
2022-11-30T02:55:14.547Z,6.30
2022-11-30T02:57:42.685Z,6.30
2022-11-30T03:00:21.359Z,6.30
2022-11-30T03:02:50.001Z,6.30
2022-11-30T03:05:24.359Z,6.30
2022-11-30T03:07:52.616Z,6.30
2022-11-30T03:10:27.377Z,6.30
2022-11-30T03:13:05.359Z,6.20
2022-11-30T03:15:34.959Z,6.10
2022-11-30T03:18:10.373Z,6.20
2022-11-30T03:20:42.661Z,6.10
2022-11-30T03:23:17.375Z,6.10
2022-11-30T03:25:45.442Z,6.10
2022-11-30T03:28:20.458Z,6.10
2022-11-30T03:30:51.673Z,6.20
2022-11-30T03:33:26.341Z,6.20
2022-11-30T03:36:01.649Z,6.20
2022-11-30T03:38:43.367Z,6.10
2022-11-30T03:41:23.433Z,6.20
2022-11-30T03:43:58.442Z,6.20
2022-11-30T03:46:28.225Z,6.20
2022-11-30T03:49:03.533Z,6.10
2022-11-30T03:51:31.668Z,6.10
2022-11-30T03:54:06.373Z,6.00
2022-11-30T03:56:34.488Z,6.00
2022-11-30T03:59:09.419Z,6.00
2022-11-30T04:01:41.285Z,6.00
2022-11-30T04:04:16.403Z,6.00
2022-11-30T04:06:44.552Z,6.00
2022-11-30T04:09:20.399Z,6.10
2022-11-30T04:11:48.564Z,6.00
2022-11-30T04:14:23.591Z,6.00
2022-11-30T04:16:53.283Z,6.20
2022-11-30T04:19:28.475Z,6.00
2022-11-30T04:21:59.220Z,6.00
2022-11-30T04:24:33.436Z,6.00
2022-11-30T04:27:01.598Z,6.00
2022-11-30T04:29:36.430Z,6.00
2022-11-30T04:32:06.141Z,6.00
2022-11-30T04:34:40.467Z,6.00
2022-11-30T04:37:28.413Z,6.00
2022-11-30T04:40:03.451Z,6.00
2022-11-30T04:42:31.635Z,6.00
2022-11-30T04:45:06.458Z,6.00
2022-11-30T04:47:36.093Z,6.00
2022-11-30T04:50:11.442Z,6.00
2022-11-30T04:52:39.805Z,6.00
2022-11-30T04:55:15.456Z,5.90
2022-11-30T04:57:43.818Z,5.90
2022-11-30T05:00:19.472Z,5.90
2022-11-30T05:02:52.979Z,5.90
2022-11-30T05:05:28.444Z,5.90
2022-11-30T05:07:58.217Z,5.90
2022-11-30T05:10:33.497Z,5.80
2022-11-30T05:13:01.679Z,5.80
2022-11-30T05:15:36.446Z,5.90
2022-11-30T05:18:06.064Z,5.80
2022-11-30T05:20:40.477Z,5.80
2022-11-30T05:23:08.894Z,5.80
2022-11-30T05:25:43.491Z,5.70
2022-11-30T05:28:12.153Z,5.70
2022-11-30T05:30:47.465Z,5.60
2022-11-30T05:33:17.029Z,5.60
2022-11-30T05:35:51.468Z,5.60
2022-11-30T05:38:26.492Z,5.60
2022-11-30T05:41:06.473Z,5.60
2022-11-30T05:43:34.705Z,5.60
2022-11-30T05:46:10.694Z,5.60
2022-11-30T05:48:40.300Z,5.60
2022-11-30T05:51:16.503Z,5.60
2022-11-30T05:53:45.242Z,5.60
2022-11-30T05:56:21.531Z,5.60
2022-11-30T05:58:50.047Z,5.60
2022-11-30T06:01:28.510Z,5.60
2022-11-30T06:03:58.164Z,5.70
2022-11-30T06:06:32.623Z,5.70
2022-11-30T06:09:00.780Z,5.70
2022-11-30T06:11:35.549Z,5.70
2022-11-30T06:14:03.902Z,5.70
2022-11-30T06:16:38.642Z,5.70
2022-11-30T06:19:08.564Z,5.70
2022-11-30T06:21:43.548Z,5.60
2022-11-30T06:24:11.802Z,5.60
2022-11-30T06:26:46.551Z,5.60
2022-11-30T06:29:15.048Z,5.60
2022-11-30T06:31:49.623Z,5.70
2022-11-30T06:34:19.375Z,5.70
2022-11-30T06:36:53.537Z,5.70
2022-11-30T06:39:57.848Z,5.70
2022-11-30T06:42:30.561Z,5.70
2022-11-30T06:45:05.580Z,5.70
2022-11-30T06:47:33.939Z,5.80
2022-11-30T06:50:03.564Z,5.70
2022-11-30T06:52:39.631Z,5.70
2022-11-30T06:55:08.781Z,5.70
2022-11-30T06:57:43.771Z,5.70
2022-11-30T07:00:20.645Z,5.70
2022-11-30T07:02:48.837Z,5.70
2022-11-30T07:05:25.624Z,5.70
2022-11-30T07:07:53.852Z,5.70
2022-11-30T07:10:29.666Z,5.80
2022-11-30T07:12:57.989Z,5.70
2022-11-30T07:15:32.555Z,5.70
2022-11-30T07:18:02.027Z,5.70
2022-11-30T07:20:38.650Z,5.70
2022-11-30T07:23:21.906Z,5.70
2022-11-30T07:26:16.629Z,5.70
2022-11-30T07:28:46.798Z,5.60
2022-11-30T07:31:26.986Z,5.80
2022-11-30T07:33:56.075Z,5.70
2022-11-30T07:36:33.596Z,5.70
2022-11-30T07:39:07.832Z,5.70
2022-11-30T07:41:42.668Z,5.80
2022-11-30T07:44:11.673Z,5.80
2022-11-30T07:46:46.785Z,5.80
2022-11-30T07:49:15.832Z,5.80
2022-11-30T07:51:52.737Z,5.80
2022-11-30T07:54:21.110Z,5.90
2022-11-30T07:56:55.736Z,5.90
2022-11-30T07:59:23.905Z,5.80
2022-11-30T08:01:58.837Z,5.80
2022-11-30T08:04:27.214Z,5.80
2022-11-30T08:07:03.608Z,5.90
2022-11-30T08:09:31.742Z,5.80
2022-11-30T08:12:06.792Z,5.90
2022-11-30T08:14:56.626Z,5.80
2022-11-30T08:17:29.637Z,5.80
2022-11-30T08:19:57.833Z,5.80
2022-11-30T08:22:33.633Z,5.80
2022-11-30T08:25:01.789Z,5.80
2022-11-30T08:27:36.619Z,5.80
2022-11-30T08:30:05.404Z,5.90
2022-11-30T08:32:39.630Z,5.90
2022-11-30T08:35:08.384Z,5.90
2022-11-30T08:37:45.616Z,5.90
2022-11-30T08:40:20.714Z,5.90
2022-11-30T08:42:55.667Z,5.90
2022-11-30T08:45:23.841Z,6.00
2022-11-30T08:47:58.651Z,5.90
2022-11-30T08:50:27.002Z,5.90
2022-11-30T08:55:57.970Z,6.00
2022-11-30T08:58:32.668Z,6.00
2022-11-30T09:01:08.215Z,6.00
2022-11-30T09:03:42.670Z,6.00
2022-11-30T09:06:14.861Z,6.00
2022-11-30T09:08:53.691Z,6.00
2022-11-30T09:11:23.127Z,6.00
2022-11-30T09:13:58.722Z,6.20
2022-11-30T09:16:28.097Z,6.20
2022-11-30T09:19:02.670Z,6.20
2022-11-30T09:21:30.924Z,6.20
2022-11-30T09:24:06.680Z,6.20
2022-11-30T09:26:34.964Z,6.20
2022-11-30T09:29:09.681Z,6.20
2022-11-30T09:31:37.876Z,6.10
2022-11-30T09:34:12.702Z,6.20
2022-11-30T09:36:41.147Z,6.30
2022-11-30T09:39:25.729Z,6.40
2022-11-30T09:42:25.491Z,6.40
2022-11-30T09:45:07.696Z,6.50
2022-11-30T09:47:49.420Z,6.50
2022-11-30T09:50:28.059Z,6.50
2022-11-30T09:52:58.384Z,6.40
2022-11-30T09:55:37.703Z,6.40
2022-11-30T09:58:07.302Z,6.40
2022-11-30T10:00:43.700Z,6.40
2022-11-30T10:03:14.446Z,6.50
2022-11-30T10:06:01.782Z,6.60
2022-11-30T10:08:50.481Z,6.60
2022-11-30T10:11:43.793Z,6.60
2022-11-30T10:14:27.331Z,6.70
2022-11-30T10:17:08.841Z,6.70
2022-11-30T10:19:54.779Z,6.70
2022-11-30T10:22:38.784Z,6.70
2022-11-30T10:25:18.966Z,6.70
2022-11-30T10:28:08.172Z,6.70
2022-11-30T10:30:49.493Z,6.70
2022-11-30T10:33:26.874Z,6.50
2022-11-30T10:35:57.995Z,6.50
2022-11-30T10:38:37.008Z,6.50
2022-11-30T10:41:12.198Z,6.50
2022-11-30T10:43:52.967Z,6.50
2022-11-30T10:46:27.407Z,6.60
2022-11-30T10:49:06.807Z,6.60
2022-11-30T10:51:40.199Z,6.60
2022-11-30T10:54:22.826Z,6.70
2022-11-30T10:56:51.185Z,6.80
2022-11-30T10:59:31.955Z,6.80
2022-11-30T11:02:01.695Z,6.80
2022-11-30T11:04:36.825Z,6.90
2022-11-30T11:07:15.791Z,6.90
2022-11-30T11:09:53.994Z,6.90
2022-11-30T11:12:26.323Z,6.90
2022-11-30T11:15:16.868Z,6.90
2022-11-30T11:17:45.182Z,7.00
2022-11-30T11:20:36.790Z,7.00
2022-11-30T11:23:05.994Z,7.00
2022-11-30T11:25:42.840Z,7.00
2022-11-30T11:28:19.015Z,7.00
2022-11-30T11:30:55.894Z,7.10
2022-11-30T11:33:25.707Z,7.20
2022-11-30T11:36:01.865Z,7.30
2022-11-30T11:38:32.795Z,7.30
2022-11-30T11:41:10.073Z,7.30
2022-11-30T11:44:00.896Z,7.40
2022-11-30T11:46:37.916Z,7.40
2022-11-30T11:49:09.280Z,7.30
2022-11-30T11:51:45.875Z,7.30
2022-11-30T11:54:24.211Z,7.40
2022-11-30T11:56:59.889Z,7.30
2022-11-30T11:59:40.187Z,7.30
2022-11-30T12:02:27.991Z,7.30
2022-11-30T12:05:05.298Z,7.40
2022-11-30T12:11:44.905Z,7.50
2022-11-30T12:14:21.888Z,7.60
2022-11-30T12:17:05.338Z,7.70
2022-11-30T12:19:49.304Z,7.60
2022-11-30T12:22:34.435Z,7.60
2022-11-30T12:25:27.958Z,7.70
2022-11-30T12:28:07.188Z,7.70
2022-11-30T12:30:53.976Z,7.70
2022-11-30T12:33:34.225Z,7.80
2022-11-30T12:36:20.984Z,7.80
2022-11-30T12:38:54.526Z,7.80
2022-11-30T12:41:43.883Z,8.00
2022-11-30T12:44:42.142Z,8.10
2022-11-30T12:47:26.666Z,8.20
2022-11-30T12:50:28.126Z,8.20
2022-11-30T12:53:08.001Z,8.40
2022-11-30T12:55:48.133Z,8.70
2022-11-30T12:58:23.429Z,8.70
2022-11-30T13:01:12.141Z,8.50
2022-11-30T13:03:46.648Z,8.40
2022-11-30T13:06:32.143Z,8.30
2022-11-30T13:09:06.162Z,8.40
2022-11-30T13:11:45.136Z,8.30
2022-11-30T13:14:16.725Z,8.40
2022-11-30T13:16:54.007Z,8.40
2022-11-30T13:19:37.795Z,8.30
2022-11-30T13:22:16.994Z,8.40
2022-11-30T13:24:51.454Z,8.40
2022-11-30T13:27:31.153Z,8.50
2022-11-30T13:30:13.924Z,8.50
2022-11-30T13:32:58.338Z,8.40
2022-11-30T13:35:43.773Z,8.40
2022-11-30T13:38:42.303Z,8.40
2022-11-30T13:41:11.965Z,8.40
2022-11-30T13:43:53.119Z,8.30
2022-11-30T13:46:23.876Z,8.30
2022-11-30T13:49:19.084Z,8.30
2022-11-30T13:52:01.409Z,8.20
2022-11-30T13:54:48.228Z,8.20
2022-11-30T13:57:59.468Z,8.10
2022-11-30T14:00:56.039Z,8.20
2022-11-30T14:03:29.696Z,8.10
2022-11-30T14:06:34.017Z,8.00
2022-11-30T14:09:02.316Z,8.00
2022-11-30T14:11:48.007Z,7.90
2022-11-30T14:14:46.157Z,7.80
2022-11-30T14:17:34.030Z,7.80
2022-11-30T14:20:09.948Z,7.80
2022-11-30T14:22:47.980Z,7.80
2022-11-30T14:25:18.733Z,7.70
2022-11-30T14:27:55.991Z,7.70
2022-11-30T14:30:26.133Z,7.70
2022-11-30T14:33:04.986Z,7.70
2022-11-30T14:35:34.590Z,7.70
2022-11-30T14:38:09.993Z,7.70
2022-11-30T14:40:38.592Z,7.70
2022-11-30T14:43:15.045Z,7.70
2022-11-30T14:45:44.801Z,7.70
2022-11-30T14:48:23.019Z,7.70
2022-11-30T14:50:52.883Z,7.60
2022-11-30T14:53:40.020Z,7.60
2022-11-30T14:56:18.076Z,7.60
2022-11-30T14:58:59.085Z,7.60
2022-11-30T15:01:31.820Z,7.60
2022-11-30T15:04:13.065Z,7.60
2022-11-30T15:06:49.710Z,7.60
2022-11-30T15:09:29.197Z,7.60
2022-11-30T15:11:58.441Z,7.60
2022-11-30T15:14:33.070Z,7.60
2022-11-30T15:17:03.066Z,7.50
2022-11-30T15:19:41.085Z,7.50
2022-11-30T15:22:23.192Z,7.50
2022-11-30T15:25:13.042Z,7.50
2022-11-30T15:27:48.468Z,7.50
2022-11-30T15:30:25.228Z,7.50
2022-11-30T15:32:57.686Z,7.50
2022-11-30T15:35:57.031Z,7.50
2022-11-30T15:38:25.235Z,7.50
2022-11-30T15:41:03.100Z,7.50
2022-11-30T15:43:38.258Z,7.40
2022-11-30T15:46:14.275Z,7.50
2022-11-30T15:48:49.120Z,7.40
2022-11-30T15:51:33.100Z,7.40
2022-11-30T15:54:01.582Z,7.40
2022-11-30T15:56:37.139Z,7.40
2022-11-30T15:59:07.594Z,7.40
2022-11-30T16:02:13.279Z,7.30
2022-11-30T16:05:38.078Z,7.30
2022-11-30T16:08:21.065Z,7.30
2022-11-30T16:10:49.379Z,7.20
2022-11-30T16:13:27.090Z,7.20
2022-11-30T16:15:55.355Z,7.30
2022-11-30T16:18:32.162Z,7.20
2022-11-30T16:21:02.618Z,7.20
2022-11-30T16:23:39.102Z,7.30
2022-11-30T16:26:28.859Z,7.30
2022-11-30T16:29:07.139Z,7.30
2022-11-30T16:31:37.412Z,7.30
2022-11-30T16:34:15.089Z,7.30
2022-11-30T16:36:44.732Z,7.20
2022-11-30T16:39:20.300Z,7.20
2022-11-30T16:41:48.643Z,7.20
2022-11-30T16:44:23.268Z,7.20
2022-11-30T16:46:54.007Z,7.20
2022-11-30T16:49:29.124Z,7.20
2022-11-30T16:51:58.857Z,7.20
2022-11-30T16:54:34.123Z,7.20
2022-11-30T16:57:02.444Z,7.10
2022-11-30T16:59:37.277Z,7.10
2022-11-30T17:02:05.885Z,7.10
2022-11-30T17:04:41.356Z,7.00
2022-11-30T17:07:17.580Z,7.00
2022-11-30T17:09:52.322Z,6.90
2022-11-30T17:12:20.711Z,6.90
2022-11-30T17:14:56.159Z,6.80
2022-11-30T17:17:24.487Z,6.80
2022-11-30T17:19:59.162Z,6.70
2022-11-30T17:22:28.663Z,6.70
2022-11-30T17:25:03.325Z,6.70
2022-11-30T17:27:31.629Z,6.60
2022-11-30T17:30:06.334Z,6.60
2022-11-30T17:32:34.745Z,6.60
2022-11-30T17:35:10.365Z,6.60
2022-11-30T17:37:40.250Z,6.60
2022-11-30T17:40:19.154Z,6.60
2022-11-30T17:42:47.823Z,6.50
2022-11-30T17:45:22.153Z,6.50
2022-11-30T17:47:50.353Z,6.50
2022-11-30T17:50:26.184Z,6.50
2022-11-30T17:52:55.890Z,6.40
2022-11-30T17:55:30.220Z,6.40
2022-11-30T17:57:58.541Z,6.30
2022-11-30T18:00:34.161Z,6.30
2022-11-30T18:03:02.701Z,6.30
2022-11-30T18:05:39.246Z,6.30
2022-11-30T18:08:22.208Z,6.30
2022-11-30T18:10:50.474Z,6.30
2022-11-30T18:13:25.199Z,6.30
2022-11-30T18:15:53.638Z,6.30
2022-11-30T18:18:28.382Z,6.30
2022-11-30T18:20:56.798Z,6.20
2022-11-30T18:23:33.251Z,6.10
2022-11-30T18:26:01.392Z,6.10
2022-11-30T18:28:36.215Z,6.00
2022-11-30T18:31:06.775Z,6.00
2022-11-30T18:33:42.222Z,5.90
2022-11-30T18:36:10.911Z,5.90
2022-11-30T18:38:48.211Z,5.90
2022-11-30T18:41:16.528Z,5.90
2022-11-30T18:43:51.249Z,5.90
2022-11-30T18:46:19.508Z,5.90
2022-11-30T18:48:57.389Z,5.90
2022-11-30T18:51:27.912Z,5.90
2022-11-30T18:54:06.249Z,5.90
2022-11-30T18:56:36.113Z,5.90
2022-11-30T18:59:14.387Z,5.90
2022-11-30T19:01:43.322Z,5.90
2022-11-30T19:04:19.160Z,5.80
2022-11-30T19:06:55.316Z,5.80
2022-11-30T19:09:31.380Z,5.80
2022-11-30T19:12:00.307Z,5.90
2022-11-30T19:14:35.272Z,5.90
2022-11-30T19:17:03.848Z,6.00
2022-11-30T19:19:39.183Z,6.00
2022-11-30T19:22:07.770Z,6.00
2022-11-30T19:24:44.248Z,6.00
2022-11-30T19:27:12.677Z,6.20
2022-11-30T19:29:47.413Z,6.00
2022-11-30T19:32:16.264Z,6.10
2022-11-30T19:34:51.214Z,6.10
2022-11-30T19:37:19.463Z,6.00
2022-11-30T19:39:55.279Z,6.00
2022-11-30T19:42:23.621Z,6.00
2022-11-30T19:44:58.278Z,6.00
2022-11-30T19:47:26.436Z,6.10
2022-11-30T19:50:01.319Z,6.00
2022-11-30T19:52:29.554Z,6.00
2022-11-30T19:55:06.230Z,6.10
2022-11-30T19:57:36.420Z,6.10
2022-11-30T20:00:13.284Z,6.10
2022-11-30T20:02:41.846Z,6.10
2022-11-30T20:05:17.302Z,6.10
2022-11-30T20:07:52.729Z,6.10
2022-11-30T20:10:32.160Z,6.20
2022-11-30T20:13:00.626Z,6.20
2022-11-30T20:15:35.514Z,6.20
2022-11-30T20:18:03.727Z,6.20
2022-11-30T20:20:38.497Z,6.20
2022-11-30T20:23:06.875Z,6.20
2022-11-30T20:25:43.355Z,6.20
2022-11-30T20:28:12.742Z,6.20
2022-11-30T20:30:47.498Z,6.20
2022-11-30T20:33:15.644Z,6.20
2022-11-30T20:35:50.312Z,6.20
2022-11-30T20:38:18.728Z,6.20
2022-11-30T20:40:56.310Z,6.20
2022-11-30T20:43:24.797Z,6.20
2022-11-30T20:46:00.379Z,6.20
2022-11-30T20:48:29.129Z,6.20
2022-11-30T20:51:32.791Z,6.20
2022-11-30T20:53:53.091Z,6.20
2022-11-30T20:56:30.406Z,6.20
2022-11-30T20:59:02.627Z,6.10
2022-11-30T21:01:37.609Z,6.10
2022-11-30T21:04:06.308Z,6.20
2022-11-30T21:06:41.395Z,6.20
2022-11-30T21:09:18.039Z,6.20
2022-11-30T21:11:55.416Z,6.20
2022-11-30T21:14:23.714Z,6.20
2022-11-30T21:16:58.527Z,6.10
2022-11-30T21:19:27.220Z,6.10
2022-11-30T21:22:02.411Z,6.00
2022-11-30T21:24:30.821Z,6.00
2022-11-30T21:27:07.388Z,5.90
2022-11-30T21:29:37.856Z,5.90
2022-11-30T21:32:14.795Z,5.90
2022-11-30T21:34:44.295Z,5.80
2022-11-30T21:37:19.396Z,5.70
2022-11-30T21:39:47.838Z,5.70
2022-11-30T21:42:24.528Z,5.60
2022-11-30T21:44:52.700Z,5.50
2022-11-30T21:47:27.592Z,5.40
2022-11-30T21:50:03.376Z,5.40
2022-11-30T21:52:31.636Z,5.30
2022-11-30T21:55:06.358Z,5.30
2022-11-30T21:57:35.923Z,5.20
2022-11-30T22:00:11.399Z,5.20
2022-11-30T22:02:39.790Z,5.10
2022-11-30T22:05:15.441Z,5.10
2022-11-30T22:07:50.889Z,5.10
2022-11-30T22:10:25.482Z,5.10
2022-11-30T22:12:55.314Z,5.00
2022-11-30T22:15:23.703Z,5.10
2022-11-30T22:18:00.389Z,5.10
2022-11-30T22:20:28.959Z,5.00
2022-11-30T22:23:03.414Z,5.10
2022-11-30T22:25:31.773Z,5.10
2022-11-30T22:28:08.441Z,5.10
2022-11-30T22:30:36.747Z,5.10
2022-11-30T22:33:11.408Z,5.10
2022-11-30T22:35:39.597Z,5.10
2022-11-30T22:38:14.577Z,5.10
2022-11-30T22:40:42.879Z,5.10
2022-11-30T22:43:19.464Z,5.10
2022-11-30T22:45:47.689Z,5.20
2022-11-30T22:48:22.435Z,5.20
2022-11-30T22:50:50.583Z,5.20
2022-11-30T22:53:25.458Z,5.20
2022-11-30T22:55:53.790Z,5.30
2022-11-30T22:58:30.440Z,5.30
2022-11-30T23:00:59.328Z,5.30
2022-11-30T23:03:35.615Z,5.30
2022-11-30T23:06:25.479Z,5.30
2022-11-30T23:09:01.509Z,5.40
2022-11-30T23:11:31.370Z,5.40
2022-11-30T23:14:08.466Z,5.40
2022-11-30T23:16:37.451Z,5.40
2022-11-30T23:19:13.433Z,5.40
2022-11-30T23:21:44.957Z,5.50
2022-11-30T23:24:23.462Z,5.50
2022-11-30T23:26:52.071Z,5.50
2022-11-30T23:29:28.613Z,5.50
2022-11-30T23:31:56.814Z,5.60
2022-11-30T23:34:31.467Z,5.50
2022-11-30T23:37:00.047Z,5.60
2022-11-30T23:39:35.478Z,5.50
2022-11-30T23:42:04.072Z,5.50
2022-11-30T23:44:40.417Z,5.50
2022-11-30T23:47:08.751Z,5.50
2022-11-30T23:49:43.546Z,5.60
2022-11-30T23:52:11.755Z,5.50
2022-11-30T23:54:46.512Z,5.50
2022-11-30T23:57:14.856Z,5.50
2022-11-30T23:59:50.701Z,5.50
